createdAt,value
2023-05-07T00:01:27.865Z,0.30
2023-05-07T00:03:56.278Z,0.38
2023-05-07T00:06:27.732Z,0.40
2023-05-07T00:08:55.985Z,0.30
2023-05-07T00:11:24.445Z,0.20
2023-05-07T00:13:52.743Z,0.20
2023-05-07T00:16:21.074Z,0.40
2023-05-07T00:18:49.363Z,0.30
2023-05-07T00:21:17.689Z,0.50
2023-05-07T00:23:47.321Z,0.30
2023-05-07T00:26:15.739Z,0.20
2023-05-07T00:28:44.009Z,0.40
2023-05-07T00:31:12.313Z,0.40
2023-05-07T00:33:40.898Z,0.10
2023-05-07T00:36:09.496Z,0.23
2023-05-07T00:38:37.752Z,0.20
2023-05-07T00:41:07.681Z,0.20
2023-05-07T00:43:35.986Z,0.30
2023-05-07T00:46:04.422Z,0.20
2023-05-07T00:48:33.783Z,0.20
2023-05-07T00:51:02.072Z,0.20
2023-05-07T00:53:30.712Z,0.20
2023-05-07T00:55:59.291Z,0.28
2023-05-07T00:58:29.254Z,0.10
2023-05-07T01:00:57.657Z,0.10
2023-05-07T01:03:26.707Z,0.10
2023-05-07T01:05:56.799Z,0.20
2023-05-07T01:08:27.801Z,0.40
2023-05-07T01:10:57.034Z,0.13
2023-05-07T01:13:26.531Z,0.60
2023-05-07T01:15:56.533Z,0.30
2023-05-07T01:18:24.799Z,0.30
2023-05-07T01:20:53.607Z,0.30
2023-05-07T01:23:23.465Z,0.30
2023-05-07T01:25:55.038Z,0.25
2023-05-07T01:28:23.418Z,0.30
2023-05-07T01:30:56.786Z,0.20
2023-05-07T01:33:25.916Z,0.10
2023-05-07T01:35:55.915Z,0.30
2023-05-07T01:38:26.836Z,0.25
2023-05-07T01:40:55.537Z,0.25
2023-05-07T01:43:23.817Z,0.47
2023-05-07T01:45:53.710Z,0.40
2023-05-07T01:48:22.430Z,0.50
2023-05-07T01:50:51.235Z,0.32
2023-05-07T01:53:19.330Z,0.30
2023-05-07T01:55:48.934Z,0.40
2023-05-07T01:58:17.227Z,0.60
2023-05-07T02:00:45.551Z,0.50
2023-05-07T02:03:14.127Z,0.30
2023-05-07T02:05:42.501Z,0.63
2023-05-07T02:08:10.996Z,0.40
2023-05-07T02:10:39.257Z,0.60
2023-05-07T02:13:08.983Z,0.43
2023-05-07T02:15:37.295Z,0.40
2023-05-07T02:18:08.326Z,0.20
2023-05-07T02:20:36.662Z,0.30
2023-05-07T02:23:04.930Z,0.30
2023-05-07T02:25:32.971Z,0.30
2023-05-07T02:28:01.227Z,0.40
2023-05-07T02:30:31.252Z,0.32
2023-05-07T02:32:59.484Z,0.30
2023-05-07T02:35:27.999Z,0.40
2023-05-07T02:37:56.257Z,0.30
2023-05-07T02:40:24.907Z,0.60
2023-05-07T02:42:53.173Z,0.30
2023-05-07T02:45:21.468Z,0.50
2023-05-07T02:47:51.117Z,0.50
2023-05-07T02:50:19.638Z,0.30
2023-05-07T02:52:48.345Z,0.20
2023-05-07T02:55:17.102Z,0.20
2023-05-07T02:57:45.348Z,0.40
2023-05-07T03:00:16.741Z,0.22
2023-05-07T03:02:45.110Z,0.20
2023-05-07T03:05:15.496Z,0.22
2023-05-07T03:07:46.331Z,0.60
2023-05-07T03:10:14.658Z,0.20
2023-05-07T03:12:43.014Z,0.20
2023-05-07T03:15:13.726Z,0.30
2023-05-07T03:17:42.157Z,0.20
2023-05-07T03:20:12.114Z,0.20
2023-05-07T03:22:42.365Z,0.30
2023-05-07T03:25:12.210Z,0.30
2023-05-07T03:27:40.707Z,0.20
2023-05-07T03:30:11.027Z,0.30
2023-05-07T03:32:39.575Z,0.20
2023-05-07T03:35:08.556Z,0.30
2023-05-07T03:37:36.994Z,0.20
2023-05-07T03:40:09.118Z,0.20
2023-05-07T03:42:37.556Z,0.20
2023-05-07T03:45:07.120Z,0.30
2023-05-07T03:47:35.410Z,0.30
2023-05-07T03:50:03.768Z,0.30
2023-05-07T03:52:31.991Z,0.40
2023-05-07T03:55:00.269Z,0.38
2023-05-07T03:57:29.865Z,0.20
2023-05-07T03:59:58.191Z,0.30
2023-05-07T04:02:26.628Z,0.40
2023-05-07T04:04:55.130Z,0.20
2023-05-07T04:07:23.439Z,0.28
2023-05-07T04:09:51.692Z,0.30
2023-05-07T04:12:19.972Z,0.30
2023-05-07T04:14:49.591Z,0.30
2023-05-07T04:17:17.818Z,0.22
2023-05-07T04:19:46.629Z,0.30
2023-05-07T04:22:15.131Z,0.45
2023-05-07T04:24:43.403Z,0.50
2023-05-07T04:27:11.812Z,0.30
2023-05-07T04:29:43.270Z,0.57
2023-05-07T04:32:13.745Z,1.17
2023-05-07T04:34:42.049Z,0.40
2023-05-07T04:37:10.446Z,0.77
2023-05-07T04:39:38.717Z,1.40
2023-05-07T04:42:08.656Z,1.98
2023-05-07T04:44:38.082Z,0.70
2023-05-07T04:47:06.710Z,0.75
2023-05-07T04:49:36.306Z,0.77
2023-05-07T04:52:05.366Z,0.90
2023-05-07T04:54:33.680Z,0.90
2023-05-07T04:57:01.974Z,0.77
2023-05-07T04:59:30.299Z,0.70
2023-05-07T05:01:58.776Z,0.85
2023-05-07T05:04:27.130Z,0.70
2023-05-07T05:06:56.795Z,1.10
2023-05-07T05:09:25.032Z,0.70
2023-05-07T05:11:53.312Z,0.65
2023-05-07T05:14:21.594Z,0.82
2023-05-07T05:16:49.896Z,0.68
2023-05-07T05:19:18.148Z,0.47
2023-05-07T05:21:46.430Z,0.60
2023-05-07T05:24:16.201Z,0.70
2023-05-07T05:26:44.484Z,0.60
2023-05-07T05:29:12.729Z,0.80
2023-05-07T05:31:42.792Z,0.55
2023-05-07T05:34:11.145Z,0.73
2023-05-07T05:36:39.381Z,0.50
2023-05-07T05:39:07.911Z,1.00
2023-05-07T05:41:37.530Z,0.80
2023-05-07T05:44:05.799Z,0.50
2023-05-07T05:46:36.878Z,0.80
2023-05-07T05:49:05.466Z,0.60
2023-05-07T05:51:33.719Z,0.90
2023-05-07T05:54:01.989Z,0.60
2023-05-07T05:56:30.366Z,0.40
2023-05-07T05:59:00.243Z,0.85
2023-05-07T06:01:28.666Z,0.60
2023-05-07T06:03:56.946Z,0.60
2023-05-07T06:06:25.227Z,0.60
2023-05-07T06:08:53.470Z,1.00
2023-05-07T06:11:22.115Z,0.77
2023-05-07T06:13:50.330Z,0.77
2023-05-07T06:16:19.979Z,0.60
2023-05-07T06:18:48.334Z,1.30
2023-05-07T06:21:16.764Z,0.90
2023-05-07T06:23:45.588Z,0.80
2023-05-07T06:26:13.836Z,0.70
2023-05-07T06:28:42.051Z,0.50
2023-05-07T06:31:15.162Z,1.10
2023-05-07T06:33:46.774Z,0.50
2023-05-07T06:36:15.192Z,0.73
2023-05-07T06:38:43.583Z,0.73
2023-05-07T06:41:11.828Z,0.80
2023-05-07T06:43:40.054Z,1.10
2023-05-07T06:46:08.456Z,0.60
2023-05-07T06:48:36.758Z,0.70
2023-05-07T06:51:07.048Z,0.60
2023-05-07T06:53:36.552Z,0.60
2023-05-07T06:56:04.915Z,0.60
2023-05-07T06:58:33.169Z,0.65
2023-05-07T07:01:01.520Z,0.70
2023-05-07T07:03:29.769Z,0.43
2023-05-07T07:05:58.057Z,0.60
2023-05-07T07:08:27.694Z,0.47
2023-05-07T07:10:55.946Z,0.35
2023-05-07T07:13:24.191Z,0.40
2023-05-07T07:15:52.579Z,0.70
2023-05-07T07:18:21.334Z,0.90
2023-05-07T07:20:49.796Z,0.90
2023-05-07T07:23:18.024Z,0.70
2023-05-07T07:25:48.020Z,0.47
2023-05-07T07:28:16.486Z,0.82
2023-05-07T07:30:45.233Z,0.50
2023-05-07T07:33:13.466Z,0.73
2023-05-07T07:35:42.224Z,0.50
2023-05-07T07:38:10.481Z,0.60
2023-05-07T07:40:38.723Z,0.50
2023-05-07T07:43:08.302Z,0.60
2023-05-07T07:45:37.331Z,0.50
2023-05-07T07:48:05.841Z,0.85
2023-05-07T07:50:44.336Z,0.43
2023-05-07T07:53:13.203Z,0.60
2023-05-07T07:55:41.789Z,0.70
2023-05-07T07:58:11.464Z,0.63
2023-05-07T08:00:39.661Z,0.43
2023-05-07T08:03:08.513Z,0.60
2023-05-07T08:05:37.342Z,0.40
2023-05-07T08:08:06.885Z,0.63
2023-05-07T08:10:39.212Z,0.70
2023-05-07T08:13:08.227Z,0.65
2023-05-07T08:15:37.914Z,0.57
2023-05-07T08:18:06.476Z,0.60
2023-05-07T08:20:40.252Z,0.50
2023-05-07T08:23:08.816Z,0.60
2023-05-07T08:25:37.329Z,0.80
2023-05-07T08:28:07.129Z,0.70
2023-05-07T08:30:38.055Z,0.28
2023-05-07T08:33:06.342Z,0.70
2023-05-07T08:35:34.609Z,0.65
2023-05-07T08:38:02.906Z,0.70
2023-05-07T08:40:32.041Z,0.80
2023-05-07T08:43:01.924Z,0.50
2023-05-07T08:45:32.663Z,0.52
2023-05-07T08:48:07.503Z,0.60
2023-05-07T08:50:38.470Z,0.70
2023-05-07T08:53:07.148Z,0.60
2023-05-07T08:55:35.486Z,0.40
2023-05-07T08:58:03.783Z,0.70
2023-05-07T09:00:32.077Z,0.53
2023-05-07T09:03:03.033Z,0.50
2023-05-07T09:05:31.319Z,0.60
2023-05-07T09:08:01.816Z,0.70
2023-05-07T09:10:31.391Z,0.80
2023-05-07T09:12:59.679Z,0.35
2023-05-07T09:15:29.003Z,0.50
2023-05-07T09:18:03.355Z,0.50
2023-05-07T09:20:33.746Z,0.50
2023-05-07T09:23:02.065Z,0.50
2023-05-07T09:25:32.167Z,0.43
2023-05-07T09:28:01.644Z,0.40
2023-05-07T09:30:31.506Z,0.40
2023-05-07T09:33:02.717Z,0.57
2023-05-07T09:35:32.559Z,0.47
2023-05-07T09:38:04.330Z,0.30
2023-05-07T09:40:33.460Z,0.30
2023-05-07T09:43:12.743Z,0.50
2023-05-07T09:45:41.342Z,0.60
2023-05-07T09:48:12.688Z,0.30
2023-05-07T09:50:50.340Z,0.45
2023-05-07T09:53:19.618Z,0.40
2023-05-07T09:55:48.152Z,0.40
2023-05-07T09:58:18.490Z,0.30
2023-05-07T10:00:47.621Z,0.30
2023-05-07T10:03:18.173Z,0.63
2023-05-07T10:05:48.471Z,0.60
2023-05-07T10:08:17.978Z,0.38
2023-05-07T10:10:47.373Z,0.30
2023-05-07T10:13:15.732Z,0.40
2023-05-07T10:15:44.582Z,0.55
2023-05-07T10:18:14.586Z,0.67
2023-05-07T10:20:45.305Z,0.50
2023-05-07T10:23:21.311Z,0.30
2023-05-07T10:25:50.031Z,0.30
2023-05-07T10:28:20.877Z,0.40
2023-05-07T10:31:03.989Z,0.38
2023-05-07T10:33:35.170Z,0.30
2023-05-07T10:36:06.275Z,0.70
2023-05-07T10:38:35.026Z,0.40
2023-05-07T10:41:06.564Z,0.40
2023-05-07T10:43:43.891Z,0.45
2023-05-07T10:46:14.115Z,0.30
2023-05-07T10:49:17.260Z,0.50
2023-05-07T10:51:48.259Z,0.40
2023-05-07T10:54:23.210Z,0.30
2023-05-07T10:56:52.213Z,0.40
2023-05-07T10:59:43.499Z,0.40
2023-05-07T11:02:15.209Z,0.40
2023-05-07T11:04:43.793Z,0.65
2023-05-07T11:07:29.983Z,0.77
2023-05-07T11:10:02.263Z,0.60
2023-05-07T11:12:56.114Z,0.50
2023-05-07T11:15:46.151Z,0.22
2023-05-07T11:18:16.070Z,0.32
2023-05-07T11:20:52.622Z,0.20
2023-05-07T11:26:51.334Z,0.47
2023-05-07T11:29:23.016Z,0.20
2023-05-07T11:31:53.065Z,0.20
2023-05-07T11:34:25.757Z,0.30
2023-05-07T11:36:55.389Z,0.60
2023-05-07T11:39:32.594Z,0.25
2023-05-07T11:42:03.131Z,0.30
2023-05-07T11:44:47.678Z,0.20
2023-05-07T11:47:20.848Z,0.45
2023-05-07T11:49:50.129Z,0.60
2023-05-07T11:52:19.891Z,0.70
2023-05-07T11:54:51.813Z,0.38
2023-05-07T11:57:22.001Z,0.57
2023-05-07T11:59:50.324Z,0.50
2023-05-07T12:02:19.364Z,0.37
2023-05-07T12:04:47.732Z,0.50
2023-05-07T12:07:17.179Z,0.57
2023-05-07T12:09:46.181Z,0.60
2023-05-07T12:12:16.706Z,0.50
2023-05-07T12:14:48.152Z,0.80
2023-05-07T12:17:17.557Z,0.60
2023-05-07T12:19:47.492Z,0.43
2023-05-07T12:22:16.048Z,0.80
2023-05-07T12:24:47.526Z,0.80
2023-05-07T12:27:16.523Z,0.68
2023-05-07T12:29:49.010Z,0.70
2023-05-07T12:32:18.179Z,0.65
2023-05-07T12:34:47.135Z,0.80
2023-05-07T12:37:15.976Z,0.50
2023-05-07T12:39:49.718Z,0.57
2023-05-07T12:42:18.890Z,0.60
2023-05-07T12:44:49.480Z,0.80
2023-05-07T12:47:17.838Z,0.52
2023-05-07T12:49:47.190Z,0.57
2023-05-07T12:52:15.606Z,0.70
2023-05-07T12:54:43.850Z,0.50
2023-05-07T12:57:12.750Z,0.75
2023-05-07T12:59:42.732Z,0.50
2023-05-07T13:02:12.477Z,0.60
2023-05-07T13:04:40.791Z,0.60
2023-05-07T13:07:09.257Z,0.70
2023-05-07T13:09:38.205Z,0.80
2023-05-07T13:12:07.295Z,0.70
2023-05-07T13:14:35.590Z,0.90
2023-05-07T13:17:03.838Z,0.80
2023-05-07T13:19:33.489Z,0.90
2023-05-07T13:22:01.762Z,1.77
2023-05-07T13:24:29.962Z,1.10
2023-05-07T13:26:58.264Z,1.00
2023-05-07T13:29:30.893Z,1.08
2023-05-07T13:31:59.625Z,1.02
2023-05-07T13:34:28.019Z,1.10
2023-05-07T13:36:57.744Z,1.00
2023-05-07T13:39:26.065Z,1.00
2023-05-07T13:41:54.336Z,1.25
2023-05-07T13:44:22.928Z,1.13
2023-05-07T13:46:51.198Z,1.17
2023-05-07T13:49:19.557Z,1.10
2023-05-07T13:51:47.835Z,1.08
2023-05-07T13:54:17.659Z,1.17
2023-05-07T13:56:45.990Z,1.40
2023-05-07T13:59:15.496Z,1.13
2023-05-07T14:01:43.784Z,1.40
2023-05-07T14:04:12.198Z,1.15
2023-05-07T14:06:40.984Z,1.27
2023-05-07T14:09:09.247Z,1.02
2023-05-07T14:11:38.835Z,0.90
2023-05-07T14:14:07.081Z,1.05
2023-05-07T14:16:35.337Z,1.10
2023-05-07T14:19:03.615Z,1.10
2023-05-07T14:21:32.559Z,1.15
2023-05-07T14:24:01.108Z,1.10
2023-05-07T14:26:29.410Z,1.10
2023-05-07T14:28:59.366Z,1.50
2023-05-07T14:31:28.109Z,1.10
2023-05-07T14:33:58.882Z,1.50
2023-05-07T14:36:28.155Z,1.70
2023-05-07T14:38:56.433Z,1.30
2023-05-07T14:41:24.862Z,1.77
2023-05-07T14:43:53.130Z,1.75
2023-05-07T14:46:22.943Z,1.60
2023-05-07T14:48:51.212Z,1.30
2023-05-07T14:51:19.490Z,1.02
2023-05-07T14:53:47.971Z,1.40
2023-05-07T14:56:16.326Z,1.67
2023-05-07T14:58:44.690Z,1.30
2023-05-07T15:01:12.979Z,1.65
2023-05-07T15:03:42.873Z,1.40
2023-05-07T15:06:11.580Z,1.60
2023-05-07T15:08:39.882Z,1.40
2023-05-07T15:11:08.099Z,1.47
2023-05-07T15:13:36.349Z,1.70
2023-05-07T15:16:04.630Z,1.00
2023-05-07T15:18:32.923Z,1.35
2023-05-07T15:21:02.581Z,0.85
2023-05-07T15:23:31.271Z,0.98
2023-05-07T15:25:59.546Z,1.25
2023-05-07T15:28:29.070Z,1.60
2023-05-07T15:30:57.509Z,1.50
2023-05-07T15:33:26.504Z,1.35
2023-05-07T15:35:54.859Z,1.70
2023-05-07T15:38:24.481Z,1.63
2023-05-07T15:40:53.869Z,2.00
2023-05-07T15:43:22.977Z,2.10
2023-05-07T15:45:51.381Z,1.95
2023-05-07T15:48:19.741Z,1.70
2023-05-07T15:50:48.342Z,2.00
2023-05-07T15:53:16.586Z,1.60
2023-05-07T15:55:47.754Z,1.80
2023-05-07T15:58:20.360Z,1.58
2023-05-07T16:00:49.055Z,1.60
2023-05-07T16:03:18.997Z,2.05
2023-05-07T16:05:47.852Z,2.30
2023-05-07T16:08:16.316Z,1.80
2023-05-07T16:10:45.971Z,1.92
2023-05-07T16:13:14.221Z,1.73
2023-05-07T16:15:42.738Z,1.20
2023-05-07T16:18:12.082Z,1.60
2023-05-07T16:20:40.385Z,1.50
2023-05-07T16:23:08.599Z,1.90
2023-05-07T16:25:36.907Z,1.80
2023-05-07T16:28:06.737Z,1.60
2023-05-07T16:30:35.148Z,1.00
2023-05-07T16:33:03.698Z,1.10
2023-05-07T16:35:32.330Z,1.20
2023-05-07T16:38:00.721Z,0.80
2023-05-07T16:40:29.201Z,0.80
2023-05-07T16:42:57.450Z,1.10
2023-05-07T16:45:27.244Z,1.50
2023-05-07T16:47:56.812Z,1.00
2023-05-07T16:50:25.153Z,0.85
2023-05-07T16:52:53.384Z,0.80
2023-05-07T16:55:21.989Z,0.50
2023-05-07T16:57:50.242Z,0.60
2023-05-07T17:00:19.232Z,0.80
2023-05-07T17:02:48.948Z,0.60
2023-05-07T17:05:17.388Z,0.93
2023-05-07T17:07:45.788Z,0.75
2023-05-07T17:10:14.030Z,0.80
2023-05-07T17:12:42.281Z,1.00
2023-05-07T17:15:12.483Z,0.90
2023-05-07T17:17:41.887Z,1.00
2023-05-07T17:20:13.907Z,1.00
2023-05-07T17:22:42.377Z,0.90
2023-05-07T17:25:13.033Z,0.63
2023-05-07T17:27:43.134Z,0.47
2023-05-07T17:30:13.096Z,0.60
2023-05-07T17:32:41.880Z,0.50
2023-05-07T17:35:11.776Z,0.50
2023-05-07T17:37:40.119Z,0.45
2023-05-07T17:40:10.276Z,0.40
2023-05-07T17:42:38.660Z,0.40
2023-05-07T17:45:08.412Z,0.40
2023-05-07T17:47:36.712Z,0.47
2023-05-07T17:50:10.577Z,0.85
2023-05-07T17:52:42.310Z,1.00
2023-05-07T17:55:11.781Z,0.80
2023-05-07T17:57:40.222Z,1.42
2023-05-07T18:00:11.002Z,1.10
2023-05-07T18:02:40.754Z,1.48
2023-05-07T18:05:10.050Z,0.50
2023-05-07T18:07:39.700Z,0.67
2023-05-07T18:10:09.125Z,0.52
2023-05-07T18:12:37.483Z,0.70
2023-05-07T18:15:07.344Z,0.50
2023-05-07T18:17:35.684Z,1.10
2023-05-07T18:20:04.331Z,0.80
2023-05-07T18:22:32.847Z,0.80
2023-05-07T18:25:03.709Z,1.02
2023-05-07T18:27:32.207Z,0.80
2023-05-07T18:30:00.571Z,0.77
2023-05-07T18:32:28.810Z,1.38
2023-05-07T18:34:57.176Z,2.10
2023-05-07T18:37:26.761Z,1.90
2023-05-07T18:39:55.177Z,0.82
2023-05-07T18:42:24.747Z,0.80
2023-05-07T18:44:53.007Z,1.48
2023-05-07T18:47:21.284Z,2.40
2023-05-07T18:49:49.526Z,2.03
2023-05-07T18:52:21.147Z,1.98
2023-05-07T18:54:49.525Z,0.85
2023-05-07T18:57:17.758Z,1.48
2023-05-07T18:59:47.354Z,2.63
2023-05-07T19:02:16.668Z,1.38
2023-05-07T19:04:44.965Z,1.10
2023-05-07T19:07:13.339Z,1.60
2023-05-07T19:09:50.618Z,1.35
2023-05-07T19:12:25.932Z,1.10
2023-05-07T19:14:56.106Z,1.15
2023-05-07T19:17:24.421Z,0.88
2023-05-07T19:19:52.671Z,1.00
2023-05-07T19:22:20.947Z,1.15
2023-05-07T19:24:49.175Z,1.00
2023-05-07T19:27:17.411Z,1.00
2023-05-07T19:29:46.001Z,1.85
2023-05-07T19:32:15.586Z,1.10
2023-05-07T19:34:43.825Z,1.00
2023-05-07T19:37:12.079Z,1.00
2023-05-07T19:39:40.473Z,1.10
2023-05-07T19:42:08.863Z,0.90
2023-05-07T19:44:37.151Z,0.98
2023-05-07T19:47:05.980Z,0.90
2023-05-07T19:49:35.662Z,0.93
2023-05-07T19:52:04.061Z,1.00
2023-05-07T19:54:32.323Z,1.00
2023-05-07T19:57:00.578Z,0.93
2023-05-07T19:59:28.915Z,0.90
2023-05-07T20:01:57.261Z,0.90
2023-05-07T20:04:30.405Z,0.82
2023-05-07T20:07:00.308Z,0.82
2023-05-07T20:09:28.535Z,0.82
2023-05-07T20:11:56.883Z,0.90
2023-05-07T20:14:25.112Z,0.87
2023-05-07T20:16:53.436Z,1.00
2023-05-07T20:19:21.710Z,1.00
2023-05-07T20:21:50.243Z,1.00
2023-05-07T20:24:20.365Z,0.80
2023-05-07T20:26:48.623Z,1.00
2023-05-07T20:29:16.908Z,0.93
2023-05-07T20:31:45.280Z,1.10
2023-05-07T20:34:13.593Z,0.90
2023-05-07T20:36:42.323Z,1.67
2023-05-07T20:39:13.159Z,1.70
2023-05-07T20:41:44.124Z,1.90
2023-05-07T20:44:12.731Z,1.07
2023-05-07T20:46:41.062Z,1.08
2023-05-07T20:49:09.271Z,1.05
2023-05-07T20:51:37.512Z,0.98
2023-05-07T20:54:08.567Z,0.95
2023-05-07T20:56:36.882Z,1.10
2023-05-07T20:59:06.476Z,1.40
2023-05-07T21:01:34.819Z,0.90
2023-05-07T21:04:03.295Z,1.00
2023-05-07T21:06:31.543Z,0.80
2023-05-07T21:08:59.768Z,0.80
2023-05-07T21:11:27.997Z,0.93
2023-05-07T21:13:56.312Z,0.90
2023-05-07T21:16:26.084Z,0.70
2023-05-07T21:18:54.334Z,0.90
2023-05-07T21:21:22.560Z,1.00
2023-05-07T21:23:50.824Z,0.90
2023-05-07T21:26:19.937Z,0.80
2023-05-07T21:28:48.459Z,1.00
2023-05-07T21:31:16.853Z,0.90
2023-05-07T21:33:46.491Z,0.90
2023-05-07T21:36:14.833Z,1.30
2023-05-07T21:38:43.043Z,1.00
2023-05-07T21:41:11.682Z,1.60
2023-05-07T21:43:40.125Z,0.70
2023-05-07T21:46:08.689Z,1.48
2023-05-07T21:48:37.128Z,0.90
2023-05-07T21:51:08.851Z,1.40
2023-05-07T21:53:37.508Z,1.23
2023-05-07T21:56:06.733Z,1.30
2023-05-07T21:58:34.986Z,1.25
2023-05-07T22:01:03.258Z,1.05
2023-05-07T22:03:31.555Z,1.00
2023-05-07T22:05:59.874Z,0.90
2023-05-07T22:08:29.426Z,1.10
2023-05-07T22:10:57.686Z,1.00
2023-05-07T22:13:26.065Z,0.90
2023-05-07T22:15:57.962Z,1.10
2023-05-07T22:18:27.261Z,0.90
2023-05-07T22:20:55.662Z,0.88
2023-05-07T22:23:23.956Z,0.85
2023-05-07T22:25:53.555Z,0.90
2023-05-07T22:28:21.926Z,0.90
2023-05-07T22:30:51.192Z,0.90
2023-05-07T22:33:19.508Z,1.13
2023-05-07T22:35:47.491Z,1.67
2023-05-07T22:38:15.792Z,0.80
2023-05-07T22:40:44.081Z,1.00
2023-05-07T22:43:13.745Z,0.90
2023-05-07T22:45:42.023Z,0.80
2023-05-07T22:48:10.439Z,0.70
2023-05-07T22:50:39.002Z,0.80
2023-05-07T22:53:07.976Z,1.15
2023-05-07T22:55:36.614Z,0.97
2023-05-07T22:58:04.835Z,0.70
2023-05-07T23:00:34.402Z,0.70
2023-05-07T23:03:03.069Z,0.70
2023-05-07T23:05:31.412Z,0.70
2023-05-07T23:07:59.638Z,0.70
2023-05-07T23:10:27.926Z,0.70
2023-05-07T23:12:56.364Z,0.60
2023-05-07T23:15:24.746Z,0.80
2023-05-07T23:17:54.361Z,0.85
2023-05-07T23:20:23.049Z,1.50
2023-05-07T23:22:51.263Z,0.73
2023-05-07T23:25:19.850Z,0.85
2023-05-07T23:27:49.890Z,0.90
2023-05-07T23:30:18.502Z,0.82
2023-05-07T23:32:46.803Z,1.10
2023-05-07T23:35:16.766Z,0.68
2023-05-07T23:37:45.052Z,0.70
2023-05-07T23:40:13.804Z,0.80
2023-05-07T23:42:42.228Z,0.70
2023-05-07T23:45:11.548Z,0.70
2023-05-07T23:47:39.827Z,0.80
2023-05-07T23:50:08.967Z,0.70
2023-05-07T23:52:38.569Z,0.95
2023-05-07T23:55:08.483Z,0.70
2023-05-07T23:57:36.713Z,0.70
